Podatki so pridobljeni v realnem času in so neuradni. Podatki so informativne narave. Opozarjamo, da ne prevzamemo odgovornosti za morebitno nastalo škodo, ki bi nastala zaradi odločitve, sprejete na osnovi podatkov s portala vremenske postaje Rače.


VREMENSKA POSTAJA

Brezula - RAČE

Domov - PORTAL - Domov

Klikni na napis za vrnitev na portal.



Obiščite še:

Template documentation
and downloads

And another site



METAR v bližini


Warning: A non-numeric value encountered in /var/www/vhosts/mojpc.net/vreme.mojpc.net/weather28/metar/metarDisplay.php on line 166
   
LJMB - Maribor
Posodobljeno: 20-10-2018 05:00
Patches of, Megla, Pretežno oblačno  
Patches of, Megla, Pretežno oblačno  
   Veter: SSZ 1.9 km/h
Veter: SSZ 1.9 km/h
Temperatura: 7°C
Točka rosišča: 6°C
Vlažnost: 93%
Zračni tlak: 1023 hPa
Oblaki: Pretežno oblačno
Vidljivost: 0 km
Podrobnosti o oblakih: Pretežno oblačno 1700 ft
LJMB 200300Z AUTO 34001KT 0100 R32/0900D BCFG BKN017/// 07/06 Q1023
LJLJ - Ljubljana
Posodobljeno: 20-10-2018 05:00
Shallow Fog, Delno oblačno  
Shallow Fog, Delno oblačno  
   Veter: SZ 1.9 km/h
Veter: SZ 1.9 km/h
Temperatura: 8°C
Točka rosišča: 7°C
Vlažnost: 93%
Zračni tlak: 1024 hPa
Oblaki: Delno oblačno
Vidljivost: 8 km
Podrobnosti o oblakih: Nekaj oblakov 100 ft,
Delno oblačno 3500 ft
LJLJ 200300Z 32001KT 8000 MIFG FEW001 SCT035 08/07 Q1024 NOSIG
LOWG - Graz
Posodobljeno: 20-10-2018 04:50
Megla, Pretežno oblačno  
Megla, Pretežno oblačno  
   Veter: Tišina
Veter: Tišina
Temperatura: 6°C
Točka rosišča: 6°C
Vlažnost: 100%
Zračni tlak: 1023 hPa
Oblaki: Pretežno oblačno
Vidljivost: 0 km
Podrobnosti o oblakih: Nekaj oblakov,
Pretežno oblačno 100 ft
LOWG 200250Z AUTO 00000KT 0300 R17/0250N R35/0400N FG FEW000 BKN001 06/06 Q1023
LDZA - Zagreb
Posodobljeno: 20-10-2018 05:00
Megla, Delno oblačno  
Megla, Delno oblačno  
   Veter: Različen 3.7 km/h
Veter: Različen 3.7 km/h
Temperatura: 7°C
Točka rosišča: 6°C
Vlažnost: 93%
Zračni tlak: 1023 hPa
Oblaki: Delno oblačno
Vidljivost: 1 km
Podrobnosti o oblakih: Delno oblačno
LDZA 200300Z VRB02KT 0500 R05/0600U R23/1500D FG NSC 07/06 Q1023 BECMG 0200 FG VV002
  

Skripto razvil  Saratoga-weather.org Prilagoditev za tampleto od  Weerstation Leuven

Vremenski podatki so objavljeni na:

UK Metoffice

European Weather Network

WeatherCloud

Weather Underground

AWEKAS

Citizen Weather Observer Program (CWOP)

HAMweather, WeatherForYou, PWS Weather

Oprema, ki se uporablja:

Vremenska postaja
Oregon Scientific WMR200

Program za vreme
Cumulus

Server za vreme
Q-Box 270N

Ponudnik
IKONIO s.p.

Oregon Scientific WMR200

Cumulus

Q-Box 270N

IKONIO s.p.



VREMENSKA POSTAJA

Brezula - RAČE

Domov - PORTAL - Domov

Klikni na napis za vrnitev na portal.